Time;durP1;ratioP1;P1;durP2;ratioP2;P2;SDS_P1;SDS_P2;PMS_P1;PMS_P2;Temp;Humidity;BMP_temperature;BMP_pressure;BME280_temperature;BME280_humidity;BME280_pressure;Samples;Min_cycle;Max_cycle;Signal;HPM_P1;HPM_P2
2022/05/10 00:01:41;;;;;;;10.38;5.45;;;;;;;;;;4997954;28;20611;-74
2022/05/10 00:04:09;;;;;;;8.73;5.43;;;;;;;;;;5001263;28;20030;-72
2022/05/10 00:06:37;;;;;;;6.90;5.30;;;;;;;;;;5006251;28;20057;-73
2022/05/10 00:09:03;;;;;;;7.45;5.10;;;;;;;;;;4998655;28;20038;-72
2022/05/10 00:11:29;;;;;;;7.13;5.30;;;;;;;;;;4999678;28;20030;-72
2022/05/10 00:13:56;;;;;;;6.47;5.28;;;;;;;;;;5000233;28;20027;-72
2022/05/10 00:16:22;;;;;;;7.30;4.80;;;;;;;;;;4983732;28;20042;-71
2022/05/10 00:18:48;;;;;;;6.72;5.05;;;;;;;;;;4981758;28;20034;-72
2022/05/10 00:21:17;;;;;;;8.30;5.20;;;;;;;;;;5000531;28;20581;-72
2022/05/10 00:23:44;;;;;;;7.35;6.07;;;;;;;;;;4978051;28;20027;-72
2022/05/10 00:26:10;;;;;;;5.70;4.70;;;;;;;;;;4999368;28;20080;-73
2022/05/10 00:28:36;;;;;;;8.23;5.32;;;;;;;;;;5000174;28;20033;-76
2022/05/10 00:31:02;;;;;;;7.53;4.70;;;;;;;;;;5002626;28;20018;-72
2022/05/10 00:33:29;;;;;;;5.97;4.85;;;;;;;;;;5001814;28;20033;-72
2022/05/10 00:35:56;;;;;;;8.40;4.97;;;;;;;;;;5001755;28;20038;-72
2022/05/10 00:38:25;;;;;;;8.63;4.88;;;;;;;;;;5001482;28;20030;-71
2022/05/10 00:40:51;;;;;;;5.90;5.22;;;;;;;;;;5003212;28;20466;-72
2022/05/10 00:43:20;;;;;;;8.27;4.75;;;;;;;;;;4996131;28;20516;-71
2022/05/10 00:46:10;;;;;;;5.82;4.45;;;;;;;;;;4997637;28;20034;-71
2022/05/10 00:48:36;;;;;;;6.47;4.68;;;;;;;;;;4989641;28;20413;-71
2022/05/10 00:51:05;;;;;;;6.10;4.72;;;;;;;;;;4997279;28;20041;-71
2022/05/10 00:53:40;;;;;;;8.68;4.65;;;;;;;;;;4997739;28;20034;-72
2022/05/10 00:56:08;;;;;;;7.55;4.57;;;;;;;;;;5000181;28;20049;-71
2022/05/10 00:58:37;;;;;;;8.23;4.38;;;;;;;;;;5006510;28;20037;-72
2022/05/10 01:01:04;;;;;;;7.00;4.55;;;;;;;;;;5006785;28;20088;-71
2022/05/10 01:03:39;;;;;;;5.47;4.50;;;;;;;;;;5000977;28;20029;-72
2022/05/10 01:06:09;;;;;;;7.00;4.80;;;;;;;;;;4996251;28;20026;-71
2022/05/10 01:08:38;;;;;;;8.02;4.38;;;;;;;;;;5001689;28;20048;-71
2022/05/10 01:11:07;;;;;;;6.45;4.60;;;;;;;;;;4997430;28;20106;-72
2022/05/10 01:13:33;;;;;;;6.30;4.97;;;;;;;;;;4997530;28;20056;-74
2022/05/10 01:16:03;;;;;;;6.47;4.10;;;;;;;;;;4999703;28;20037;-71
2022/05/10 01:18:29;;;;;;;7.47;4.70;;;;;;;;;;4997433;28;20022;-71
2022/05/10 01:20:58;;;;;;;7.03;4.22;;;;;;;;;;5000922;28;20034;-71
2022/05/10 01:23:30;;;;;;;5.72;4.00;;;;;;;;;;5001523;28;20026;-71
2022/05/10 01:25:56;;;;;;;;;;;;;;;;;;4998996;28;20088;-71
2022/05/10 01:28:40;;;;;;;5.90;3.80;;;;;;;;;;4998877;28;19957;-72
2022/05/10 01:31:13;;;;;;;7.57;4.18;;;;;;;;;;4998112;28;20053;-71
2022/05/10 01:33:48;;;;;;;4.72;3.90;;;;;;;;;;5004060;28;20110;-72
2022/05/10 01:36:14;;;;;;;6.72;3.33;;;;;;;;;;4995662;28;20050;-71
2022/05/10 01:38:44;;;;;;;5.68;4.18;;;;;;;;;;4999756;28;20026;-72
2022/05/10 01:41:10;;;;;;;6.28;4.00;;;;;;;;;;4998805;28;20183;-74
2022/05/10 01:43:45;;;;;;;6.50;3.90;;;;;;;;;;4997914;28;20031;-71
2022/05/10 01:46:13;;;;;;;7.35;4.20;;;;;;;;;;4997202;28;20438;-72
2022/05/10 01:48:40;;;;;;;6.55;4.53;;;;;;;;;;4999299;28;20092;-71
2022/05/10 01:51:26;;;;;;;5.45;4.15;;;;;;;;;;4998658;28;20060;-72
2022/05/10 01:53:52;;;;;;;9.93;4.43;;;;;;;;;;4986617;28;20034;-71
2022/05/10 01:56:21;;;;;;;6.65;4.10;;;;;;;;;;4981265;28;20034;-74
2022/05/10 01:58:48;;;;;;;7.88;4.50;;;;;;;;;;4999292;28;20025;-71
2022/05/10 02:01:14;;;;;;;8.57;5.50;;;;;;;;;;4996793;28;20029;-71
2022/05/10 02:03:42;;;;;;;7.07;4.82;;;;;;;;;;4998541;28;20525;-71
2022/05/10 02:06:29;;;;;;;5.68;4.85;;;;;;;;;;4997019;28;20471;-71
2022/05/10 02:20:29;;;;;;;8.15;7.25;;;;;;;;;;5121915;27;20399;-71
2022/05/10 02:23:01;;;;;;;10.63;7.75;;;;;;;;;;5101978;28;20050;-72
2022/05/10 02:25:30;;;;;;;9.57;7.70;;;;;;;;;;5111989;28;20026;-71
2022/05/10 02:27:59;;;;;;;9.65;8.48;;;;;;;;;;5119784;28;20024;-71
2022/05/10 02:30:28;;;;;;;10.10;8.63;;;;;;;;;;5113910;28;20023;-72
2022/05/10 02:33:08;;;;;;;11.80;8.50;;;;;;;;;;5111579;28;20030;-76
2022/05/10 02:35:43;;;;;;;13.38;9.05;;;;;;;;;;5112915;28;20119;-71
2022/05/10 02:38:11;;;;;;;13.05;8.32;;;;;;;;;;5116459;28;20041;-70
2022/05/10 02:40:41;;;;;;;12.43;8.63;;;;;;;;;;5098906;28;20027;-71
2022/05/10 02:43:09;;;;;;;15.10;7.88;;;;;;;;;;5115843;28;20024;-71
2022/05/10 02:45:36;;;;;;;12.95;9.20;;;;;;;;;;5121633;27;20011;-70
2022/05/10 02:48:02;;;;;;;12.32;9.20;;;;;;;;;;5115924;28;20533;-70
2022/05/10 02:50:33;;;;;;;11.75;9.15;;;;;;;;;;5119052;28;20081;-71
2022/05/10 02:52:59;;;;;;;11.43;9.20;;;;;;;;;;5115585;28;20039;-71
2022/05/10 02:55:32;;;;;;;10.43;9.35;;;;;;;;;;5118496;28;20093;-72
2022/05/10 02:58:00;;;;;;;12.60;10.13;;;;;;;;;;5115414;28;20116;-71
2022/05/10 03:00:27;;;;;;;13.73;9.75;;;;;;;;;;5112261;28;20075;-77
2022/05/10 03:02:54;;;;;;;13.90;9.55;;;;;;;;;;5113835;28;20531;-75
2022/05/10 03:05:20;;;;;;;11.23;9.15;;;;;;;;;;5119712;28;20035;-75
2022/05/10 03:07:46;;;;;;;12.63;9.93;;;;;;;;;;5119655;28;20302;-72
2022/05/10 03:10:13;;;;;;;13.18;10.57;;;;;;;;;;5119428;28;20027;-74
2022/05/10 03:12:39;;;;;;;13.20;10.75;;;;;;;;;;5119753;28;20036;-73
2022/05/10 03:15:05;;;;;;;18.83;10.25;;;;;;;;;;5117999;28;20048;-73
2022/05/10 03:17:33;;;;;;;13.95;10.68;;;;;;;;;;5110875;28;20015;-72
2022/05/10 03:19:59;;;;;;;15.80;10.20;;;;;;;;;;5109043;28;20578;-75
2022/05/10 03:22:25;;;;;;;14.38;10.63;;;;;;;;;;5103863;28;20035;-74
2022/05/10 03:24:51;;;;;;;14.77;11.25;;;;;;;;;;5101480;28;20081;-74
2022/05/10 03:27:18;;;;;;;12.32;10.80;;;;;;;;;;5103028;28;20035;-76
2022/05/10 03:29:44;;;;;;;17.42;11.18;;;;;;;;;;5103679;28;20659;-73
2022/05/10 03:32:10;;;;;;;15.98;10.75;;;;;;;;;;5103552;28;20069;-72
2022/05/10 03:34:55;;;;;;;14.05;11.40;;;;;;;;;;5103612;28;20027;-71
2022/05/10 03:37:25;;;;;;;13.90;10.68;;;;;;;;;;5103151;28;20433;-76
2022/05/10 03:39:51;;;;;;;15.13;10.23;;;;;;;;;;5102411;28;20027;-72
2022/05/10 03:42:17;;;;;;;18.55;11.07;;;;;;;;;;5102896;28;20396;-75
2022/05/10 03:44:44;;;;;;;15.48;10.60;;;;;;;;;;5103348;28;20487;-71
2022/05/10 03:47:10;;;;;;;13.45;10.98;;;;;;;;;;5101568;28;20027;-72
2022/05/10 03:49:37;;;;;;;14.85;10.50;;;;;;;;;;5102221;28;20035;-72
2022/05/10 03:52:03;;;;;;;13.90;10.15;;;;;;;;;;5102983;28;20103;-72
2022/05/10 03:54:29;;;;;;;14.15;10.90;;;;;;;;;;5102686;28;20513;-74
2022/05/10 03:56:55;;;;;;;12.02;10.52;;;;;;;;;;5102837;28;20039;-75
2022/05/10 03:59:22;;;;;;;14.05;11.23;;;;;;;;;;5085792;28;20608;-71
2022/05/10 04:01:48;;;;;;;12.93;10.70;;;;;;;;;;5084025;28;20039;-71
2022/05/10 04:04:15;;;;;;;14.27;11.13;;;;;;;;;;5084635;28;20429;-71
2022/05/10 04:06:41;;;;;;;16.80;11.20;;;;;;;;;;5084140;28;20088;-71
2022/05/10 04:09:07;;;;;;;15.45;11.05;;;;;;;;;;5082797;28;20364;-71
2022/05/10 04:11:35;;;;;;;15.57;10.75;;;;;;;;;;5083984;28;20596;-71
2022/05/10 04:14:03;;;;;;;16.50;11.65;;;;;;;;;;5083943;28;20077;-71
2022/05/10 04:16:29;;;;;;;14.27;11.50;;;;;;;;;;5083970;28;20031;-76
2022/05/10 04:18:55;;;;;;;13.43;10.57;;;;;;;;;;5083243;28;20093;-71
2022/05/10 04:21:21;;;;;;;17.00;11.38;;;;;;;;;;5083215;28;20066;-71
2022/05/10 04:23:48;;;;;;;13.60;10.85;;;;;;;;;;5083786;27;20071;-71
2022/05/10 04:26:15;;;;;;;14.10;10.30;;;;;;;;;;5086537;28;20028;-71
2022/05/10 04:28:41;;;;;;;14.93;9.95;;;;;;;;;;5103999;28;20084;-70
2022/05/10 04:31:08;;;;;;;14.93;11.05;;;;;;;;;;5102195;28;20111;-71
2022/05/10 04:33:35;;;;;;;15.02;10.60;;;;;;;;;;5102648;28;20016;-71
2022/05/10 04:36:01;;;;;;;18.45;10.30;;;;;;;;;;5102438;28;20023;-82
2022/05/10 04:38:28;;;;;;;13.07;10.25;;;;;;;;;;5100980;28;20035;-74
2022/05/10 04:43:39;;;;;;;13.50;10.55;;;;;;;;;;5100549;28;20327;-72
2022/05/10 04:46:05;;;;;;;14.10;11.13;;;;;;;;;;5101220;28;20425;-74
2022/05/10 04:48:33;;;;;;;14.60;10.43;;;;;;;;;;5100999;28;20517;-73
2022/05/10 04:50:59;;;;;;;15.10;11.30;;;;;;;;;;5101086;27;20023;-71
2022/05/10 04:53:26;;;;;;;14.38;10.77;;;;;;;;;;5098305;28;20035;-72
2022/05/10 04:55:52;;;;;;;13.45;10.13;;;;;;;;;;5101593;28;20038;-71
2022/05/10 04:58:18;;;;;;;16.52;10.55;;;;;;;;;;5101461;28;20081;-71
2022/05/10 05:00:44;;;;;;;15.25;10.13;;;;;;;;;;5099973;28;20034;-71
2022/05/10 05:03:10;;;;;;;16.88;10.13;;;;;;;;;;5099622;28;20039;-75
2022/05/10 05:05:36;;;;;;;12.55;9.00;;;;;;;;;;5098308;28;20061;-71
2022/05/10 05:08:03;;;;;;;9.80;7.60;;;;;;;;;;5099577;28;20035;-72
2022/05/10 05:10:29;;;;;;;8.30;6.43;;;;;;;;;;5099234;28;20167;-71
2022/05/10 05:12:55;;;;;;;9.60;5.55;;;;;;;;;;5099215;28;20028;-71
2022/05/10 05:15:21;;;;;;;9.30;6.28;;;;;;;;;;5077680;28;20036;-71
2022/05/10 05:17:47;;;;;;;8.00;5.65;;;;;;;;;;5079177;28;20488;-71
2022/05/10 05:20:13;;;;;;;18.85;5.78;;;;;;;;;;5079076;28;20059;-71
2022/05/10 05:22:40;;;;;;;9.32;6.18;;;;;;;;;;5078703;28;20028;-71
2022/05/10 05:25:06;;;;;;;9.50;6.53;;;;;;;;;;5080600;28;20028;-71
2022/05/10 05:27:33;;;;;;;7.00;5.57;;;;;;;;;;5080325;28;20099;-71
2022/05/10 05:29:59;;;;;;;8.20;6.00;;;;;;;;;;5080362;28;20040;-72
2022/05/10 05:32:28;;;;;;;8.00;6.90;;;;;;;;;;5091633;28;20031;-72
2022/05/10 05:34:54;;;;;;;10.10;7.90;;;;;;;;;;5099510;28;20031;-71
2022/05/10 05:37:32;;;;;;;12.73;7.45;;;;;;;;;;5100402;28;20024;-71
2022/05/10 05:39:59;;;;;;;11.23;8.23;;;;;;;;;;5100741;28;20477;-71
2022/05/10 05:42:25;;;;;;;12.63;8.38;;;;;;;;;;5098940;28;20031;-71
2022/05/10 05:44:51;;;;;;;9.75;7.60;;;;;;;;;;5084653;28;20024;-71
2022/05/10 05:47:17;;;;;;;11.45;7.03;;;;;;;;;;5080047;28;20035;-71
2022/05/10 05:49:43;;;;;;;9.52;6.90;;;;;;;;;;5079502;28;20036;-72
2022/05/10 05:52:10;;;;;;;10.35;6.35;;;;;;;;;;5079963;28;20024;-73
2022/05/10 05:54:36;;;;;;;10.30;7.53;;;;;;;;;;5076900;28;20024;-72
2022/05/10 05:57:03;;;;;;;10.73;7.95;;;;;;;;;;5080117;28;20024;-71
2022/05/10 05:59:29;;;;;;;10.52;7.20;;;;;;;;;;5080189;28;20032;-71
2022/05/10 06:01:56;;;;;;;7.63;6.82;;;;;;;;;;5078386;28;20619;-71
2022/05/10 06:04:22;;;;;;;10.80;7.15;;;;;;;;;;5080190;28;20028;-72
2022/05/10 06:06:48;;;;;;;8.85;6.78;;;;;;;;;;5079601;28;20061;-74
2022/05/10 06:09:15;;;;;;;9.48;7.78;;;;;;;;;;5079646;28;20036;-71
2022/05/10 06:11:41;;;;;;;15.68;8.18;;;;;;;;;;5078668;28;20032;-72
2022/05/10 06:14:08;;;;;;;14.07;8.82;;;;;;;;;;5079251;28;20028;-72
2022/05/10 06:16:34;;;;;;;9.00;7.70;;;;;;;;;;5079877;28;20024;-71
2022/05/10 06:19:00;;;;;;;9.73;7.10;;;;;;;;;;5079615;28;20503;-75
2022/05/10 06:21:28;;;;;;;8.30;7.13;;;;;;;;;;5085565;28;20039;-72
2022/05/10 06:23:54;;;;;;;9.75;6.95;;;;;;;;;;5087885;28;20559;-73
2022/05/10 06:26:20;;;;;;;15.18;9.00;;;;;;;;;;5079287;28;20032;-75
2022/05/10 06:28:46;;;;;;;11.98;7.22;;;;;;;;;;5079344;28;20492;-72
2022/05/10 06:31:13;;;;;;;9.98;8.05;;;;;;;;;;5080401;28;20028;-72
2022/05/10 06:33:39;;;;;;;9.85;8.13;;;;;;;;;;5079086;28;20157;-72
2022/05/10 06:36:05;;;;;;;8.50;7.07;;;;;;;;;;5078462;28;20019;-71
2022/05/10 06:38:32;;;;;;;10.25;7.97;;;;;;;;;;5079823;28;20395;-72
2022/05/10 06:41:01;;;;;;;12.82;8.68;;;;;;;;;;5078872;28;20107;-72
2022/05/10 06:43:28;;;;;;;15.77;7.95;;;;;;;;;;5079462;28;20062;-72
2022/05/10 06:45:57;;;;;;;12.27;7.88;;;;;;;;;;5078745;28;20069;-75
2022/05/10 06:48:24;;;;;;;8.90;7.60;;;;;;;;;;5076220;28;20028;-73
2022/05/10 06:50:50;;;;;;;10.65;8.48;;;;;;;;;;5078206;28;20032;-74
2022/05/10 06:53:16;;;;;;;12.25;8.95;;;;;;;;;;5086945;28;20134;-72
2022/05/10 06:55:43;;;;;;;11.13;7.93;;;;;;;;;;5084534;28;20028;-72
2022/05/10 06:58:09;;;;;;;11.25;8.88;;;;;;;;;;5083928;28;20082;-72
2022/05/10 07:00:37;;;;;;;10.70;8.65;;;;;;;;;;5087673;28;21381;-75
2022/05/10 07:03:04;;;;;;;9.98;7.70;;;;;;;;;;5083728;28;20085;-72
2022/05/10 07:05:30;;;;;;;13.25;8.82;;;;;;;;;;5082307;28;20569;-71
2022/05/10 07:07:56;;;;;;;12.18;8.48;;;;;;;;;;5081716;28;20040;-76
2022/05/10 07:10:22;;;;;;;10.18;8.68;;;;;;;;;;5083625;28;20020;-74
2022/05/10 07:12:48;;;;;;;12.32;9.52;;;;;;;;;;5082075;28;20079;-72
2022/05/10 07:15:19;;;;;;;13.50;9.10;;;;;;;;;;5082125;28;20039;-72
2022/05/10 07:17:45;;;;;;;9.25;8.27;;;;;;;;;;5082419;28;20048;-72
2022/05/10 07:20:13;;;;;;;8.57;7.25;;;;;;;;;;5082467;27;20044;-72
2022/05/10 07:22:39;;;;;;;10.65;7.88;;;;;;;;;;5081210;28;20016;-73
2022/05/10 07:25:06;;;;;;;11.50;7.88;;;;;;;;;;5082188;28;20032;-71
2022/05/10 07:27:32;;;;;;;9.90;7.47;;;;;;;;;;5083608;28;20516;-71
2022/05/10 07:29:58;;;;;;;12.00;8.25;;;;;;;;;;5083634;28;20036;-72
2022/05/10 07:32:25;;;;;;;11.57;8.23;;;;;;;;;;5086501;27;20035;-74
2022/05/10 07:34:51;;;;;;;8.88;7.18;;;;;;;;;;5081285;28;20530;-73
2022/05/10 07:37:17;;;;;;;11.70;7.75;;;;;;;;;;5081037;28;20509;-73
2022/05/10 07:39:44;;;;;;;9.27;7.78;;;;;;;;;;5081908;28;20027;-73
2022/05/10 07:42:10;;;;;;;12.35;8.05;;;;;;;;;;5082278;27;20594;-72
2022/05/10 07:44:36;;;;;;;10.77;8.25;;;;;;;;;;5091423;28;20115;-72
2022/05/10 07:47:03;;;;;;;12.23;7.75;;;;;;;;;;5087858;28;20096;-72
2022/05/10 07:49:29;;;;;;;10.82;8.32;;;;;;;;;;5091963;28;20039;-72
2022/05/10 07:51:55;;;;;;;10.68;8.13;;;;;;;;;;5085012;28;20051;-77
2022/05/10 07:54:23;;;;;;;13.65;8.73;;;;;;;;;;5089056;28;20426;-74
2022/05/10 07:56:49;;;;;;;21.23;10.55;;;;;;;;;;5101964;28;20035;-72
2022/05/10 07:59:16;;;;;;;11.73;8.25;;;;;;;;;;5095003;28;20218;-74
2022/05/10 08:01:42;;;;;;;11.38;7.88;;;;;;;;;;5089950;28;20032;-73
2022/05/10 08:04:08;;;;;;;10.57;7.82;;;;;;;;;;5098489;28;20047;-73
2022/05/10 08:06:34;;;;;;;11.63;7.90;;;;;;;;;;5081666;28;20031;-75
2022/05/10 08:09:01;;;;;;;10.45;8.23;;;;;;;;;;5081116;28;20036;-73
2022/05/10 08:11:27;;;;;;;12.38;7.15;;;;;;;;;;5086137;28;20086;-75
2022/05/10 08:13:53;;;;;;;7.63;6.00;;;;;;;;;;5079169;28;20112;-76
2022/05/10 08:16:19;;;;;;;8.13;6.13;;;;;;;;;;5076205;28;20048;-76
2022/05/10 08:18:48;;;;;;;9.27;6.55;;;;;;;;;;5092700;28;20059;-75
2022/05/10 08:21:14;;;;;;;10.25;6.22;;;;;;;;;;5099305;28;20027;-73
2022/05/10 08:23:40;;;;;;;6.82;5.28;;;;;;;;;;5101225;28;20027;-73
2022/05/10 08:26:08;;;;;;;9.43;5.75;;;;;;;;;;5099294;28;20548;-73
2022/05/10 08:28:35;;;;;;;8.60;6.00;;;;;;;;;;5101181;28;20031;-73
2022/05/10 08:31:03;;;;;;;8.45;5.97;;;;;;;;;;5080187;28;20639;-75
2022/05/10 08:33:30;;;;;;;10.02;6.20;;;;;;;;;;5101340;28;20118;-73
2022/05/10 08:35:57;;;;;;;7.72;5.63;;;;;;;;;;5082043;28;20444;-74
2022/05/10 08:38:24;;;;;;;7.68;5.72;;;;;;;;;;5081958;28;20051;-72
2022/05/10 08:40:59;;;;;;;8.35;5.65;;;;;;;;;;5097584;28;20031;-74
2022/05/10 08:43:46;;;;;;;7.68;5.13;;;;;;;;;;5099846;28;20039;-75
2022/05/10 08:46:15;;;;;;;9.98;5.40;;;;;;;;;;5099619;28;20658;-77
2022/05/10 08:48:42;;;;;;;12.25;5.80;;;;;;;;;;5098910;28;20038;-73
2022/05/10 08:51:09;;;;;;;7.50;5.15;;;;;;;;;;5100147;28;20039;-77
2022/05/10 08:53:35;;;;;;;9.60;5.10;;;;;;;;;;5099391;28;20035;-75
2022/05/10 08:56:04;;;;;;;9.40;5.45;;;;;;;;;;5098263;28;20905;-76
2022/05/10 08:58:36;;;;;;;7.22;4.95;;;;;;;;;;5100765;28;20107;-74
2022/05/10 09:01:03;;;;;;;8.63;5.28;;;;;;;;;;5100120;28;20104;-74
2022/05/10 09:03:58;;;;;;;8.15;4.95;;;;;;;;;;5099515;28;20591;-76
2022/05/10 09:06:37;;;;;;;6.32;4.80;;;;;;;;;;5082717;28;20122;-72
2022/05/10 09:09:10;;;;;;;7.43;4.70;;;;;;;;;;5100595;28;20597;-72
2022/05/10 09:11:45;;;;;;;8.15;5.00;;;;;;;;;;5100701;28;20023;-74
2022/05/10 09:14:13;;;;;;;7.60;4.70;;;;;;;;;;5099295;28;20115;-73
2022/05/10 09:16:39;;;;;;;7.93;5.80;;;;;;;;;;5098926;28;20031;-73
2022/05/10 09:19:06;;;;;;;7.10;5.70;;;;;;;;;;5099833;28;20200;-73
2022/05/10 09:21:48;;;;;;;10.95;6.47;;;;;;;;;;5100554;28;20483;-73
2022/05/10 09:24:14;;;;;;;8.63;6.28;;;;;;;;;;5099024;28;20024;-73
2022/05/10 09:26:47;;;;;;;9.35;5.88;;;;;;;;;;5100585;28;20020;-75
2022/05/10 09:29:22;;;;;;;6.57;5.10;;;;;;;;;;5100068;28;20034;-75
2022/05/10 09:34:46;;;;;;;7.65;5.97;;;;;;;;;;5098733;28;20092;-74
2022/05/10 09:37:13;;;;;;;7.65;5.88;;;;;;;;;;5098961;28;20382;-73
2022/05/10 09:39:41;;;;;;;7.55;5.63;;;;;;;;;;5096689;28;20028;-75
2022/05/10 09:42:07;;;;;;;6.38;5.60;;;;;;;;;;5083276;28;20020;-76
2022/05/10 09:44:33;;;;;;;10.98;5.95;;;;;;;;;;5097182;28;20027;-78
2022/05/10 09:47:11;;;;;;;9.18;5.88;;;;;;;;;;5089024;28;20131;-74
2022/05/10 09:49:38;;;;;;;8.93;6.07;;;;;;;;;;5119228;27;20130;-73
2022/05/10 09:52:05;;;;;;;8.85;6.65;;;;;;;;;;5114051;27;20011;-74
2022/05/10 09:54:37;;;;;;;8.57;5.82;;;;;;;;;;5098283;28;20119;-72
2022/05/10 09:57:04;;;;;;;8.50;5.40;;;;;;;;;;5098579;28;20020;-74
2022/05/10 09:59:32;;;;;;;10.18;5.82;;;;;;;;;;5098942;28;20097;-75
2022/05/10 10:02:01;;;;;;;10.25;6.47;;;;;;;;;;5089121;28;20032;-73
2022/05/10 10:04:32;;;;;;;10.93;5.45;;;;;;;;;;5082559;28;20032;-74
2022/05/10 10:07:07;;;;;;;8.27;5.30;;;;;;;;;;5107206;28;20534;-75
2022/05/10 10:09:36;;;;;;;6.82;4.70;;;;;;;;;;5110410;28;20040;-75
2022/05/10 10:12:02;;;;;;;10.23;5.40;;;;;;;;;;5095241;28;20448;-75
2022/05/10 10:14:43;;;;;;;7.88;4.72;;;;;;;;;;5079756;28;20032;-72
2022/05/10 10:17:16;;;;;;;7.10;4.80;;;;;;;;;;5081125;28;20024;-73
2022/05/10 10:19:45;;;;;;;9.10;5.35;;;;;;;;;;5106507;28;20051;-73
2022/05/10 10:22:14;;;;;;;5.35;4.20;;;;;;;;;;5116888;28;20820;-73
2022/05/10 10:24:59;;;;;;;7.47;4.20;;;;;;;;;;5119665;28;20100;-75
2022/05/10 10:27:29;;;;;;;10.32;4.80;;;;;;;;;;5111532;27;20482;-74
2022/05/10 10:29:57;;;;;;;9.98;5.28;;;;;;;;;;5099944;28;20081;-73
2022/05/10 10:32:44;;;;;;;5.63;4.15;;;;;;;;;;5097167;28;20020;-75
2022/05/10 10:35:25;;;;;;;7.72;4.40;;;;;;;;;;5082880;28;20040;-74
2022/05/10 10:37:56;;;;;;;6.53;4.53;;;;;;;;;;5088972;28;20562;-75
2022/05/10 10:40:31;;;;;;;15.68;5.38;;;;;;;;;;5097390;28;20494;-73
2022/05/10 10:43:07;;;;;;;12.23;5.07;;;;;;;;;;5083576;28;20173;-73
2022/05/10 10:45:37;;;;;;;7.07;4.28;;;;;;;;;;5084124;28;20034;-73
2022/05/10 10:48:06;;;;;;;7.63;4.60;;;;;;;;;;5116006;27;20019;-76
2022/05/10 10:50:34;;;;;;;5.72;4.13;;;;;;;;;;5123227;27;20080;-75
2022/05/10 10:53:01;;;;;;;11.10;4.95;;;;;;;;;;5088276;28;20039;-73
2022/05/10 10:55:36;;;;;;;10.50;4.68;;;;;;;;;;5086899;28;20541;-73
2022/05/10 10:58:32;;;;;;;9.25;4.53;;;;;;;;;;5109610;27;20024;-74
2022/05/10 11:01:01;;;;;;;10.20;4.65;;;;;;;;;;5027629;28;20045;-73
2022/05/10 11:03:31;;;;;;;7.57;4.22;;;;;;;;;;5080911;28;20089;-73
2022/05/10 11:06:16;;;;;;;6.57;4.63;;;;;;;;;;5081727;28;20056;-75
2022/05/10 11:08:58;;;;;;;6.60;4.43;;;;;;;;;;5082932;28;20124;-73
2022/05/10 11:11:27;;;;;;;7.80;4.63;;;;;;;;;;5082490;28;20085;-73
2022/05/10 11:14:13;;;;;;;7.55;4.60;;;;;;;;;;5100000;27;20364;-74
2022/05/10 11:16:47;;;;;;;5.88;4.13;;;;;;;;;;5123530;27;20559;-75
2022/05/10 11:19:25;;;;;;;8.93;4.28;;;;;;;;;;5123130;27;20066;-75
2022/05/10 11:22:12;;;;;;;7.20;4.30;;;;;;;;;;5095905;28;20617;-73
2022/05/10 11:24:44;;;;;;;7.10;4.05;;;;;;;;;;5116369;27;20122;-75
2022/05/10 11:27:31;;;;;;;7.10;4.40;;;;;;;;;;5121506;27;20025;-75
2022/05/10 11:30:02;;;;;;;6.28;4.72;;;;;;;;;;5097058;28;20035;-74
2022/05/10 11:32:38;;;;;;;5.80;4.63;;;;;;;;;;5093897;28;20031;-75
2022/05/10 11:35:08;;;;;;;6.38;4.20;;;;;;;;;;5098411;28;20039;-73
2022/05/10 11:37:54;;;;;;;10.95;4.70;;;;;;;;;;5087384;28;20020;-75
2022/05/10 11:40:40;;;;;;;7.50;4.07;;;;;;;;;;5095285;28;20042;-73
2022/05/10 11:43:07;;;;;;;6.15;4.45;;;;;;;;;;5070132;28;20116;-73
2022/05/10 11:45:49;;;;;;;7.47;3.95;;;;;;;;;;5106508;27;20508;-73
2022/05/10 11:48:22;;;;;;;5.85;4.22;;;;;;;;;;5122472;27;20031;-74
2022/05/10 11:54:10;;;;;;;8.68;4.32;;;;;;;;;;5121118;27;20057;-73
2022/05/10 11:56:38;;;;;;;10.00;4.43;;;;;;;;;;5101722;27;20030;-73
2022/05/10 11:59:04;;;;;;;5.30;3.90;;;;;;;;;;5099064;28;20039;-73
2022/05/10 12:01:49;;;;;;;10.40;4.50;;;;;;;;;;5099713;28;20110;-76
2022/05/10 12:04:34;;;;;;;4.63;3.80;;;;;;;;;;5098823;28;20031;-74
2022/05/10 12:07:19;;;;;;;6.55;3.78;;;;;;;;;;5095140;28;20032;-75
2022/05/10 12:09:54;;;;;;;7.00;3.90;;;;;;;;;;5082316;28;20047;-73
2022/05/10 12:12:47;;;;;;;6.70;4.20;;;;;;;;;;5096745;28;20032;-74
2022/05/10 12:21:19;;;;;;;7.53;4.35;;;;;;;;;;5082472;28;20032;-75
2022/05/10 12:24:06;;;;;;;7.38;4.43;;;;;;;;;;5080571;28;20047;-75
2022/05/10 12:26:48;;;;;;;9.50;4.70;;;;;;;;;;5093621;28;20066;-73
2022/05/10 12:29:36;;;;;;;13.68;5.20;;;;;;;;;;5098328;28;20176;-73
2022/05/10 12:32:05;;;;;;;5.85;4.40;;;;;;;;;;5097150;28;20384;-72
2022/05/10 12:34:43;;;;;;;6.30;4.30;;;;;;;;;;5110946;27;20027;-72
2022/05/10 12:37:26;;;;;;;4.47;4.07;;;;;;;;;;5100192;27;20089;-72
2022/05/10 12:40:10;;;;;;;8.20;4.40;;;;;;;;;;5092944;28;20104;-76
2022/05/10 12:42:44;;;;;;;7.30;4.75;;;;;;;;;;5087190;28;20051;-75
2022/05/10 12:45:17;;;;;;;7.55;4.45;;;;;;;;;;5080425;28;20085;-75
2022/05/10 12:47:51;;;;;;;6.65;4.32;;;;;;;;;;5088902;28;20102;-76
2022/05/10 12:50:22;;;;;;;11.05;3.95;;;;;;;;;;5115287;27;20031;-73
2022/05/10 12:52:48;;;;;;;8.83;4.67;;;;;;;;;;5115281;27;20034;-73
2022/05/10 12:55:21;;;;;;;5.22;3.95;;;;;;;;;;5100095;28;20264;-73
2022/05/10 12:58:07;;;;;;;9.13;3.90;;;;;;;;;;5099577;28;20057;-75
2022/05/10 13:00:44;;;;;;;8.15;4.28;;;;;;;;;;5095620;28;20031;-73
2022/05/10 13:03:12;;;;;;;6.45;3.92;;;;;;;;;;5108664;27;20034;-73
2022/05/10 13:05:47;;;;;;;6.50;3.78;;;;;;;;;;5121586;27;20015;-73
2022/05/10 13:08:31;;;;;;;8.70;4.25;;;;;;;;;;5104199;27;20031;-73
2022/05/10 13:10:59;;;;;;;6.20;4.22;;;;;;;;;;5100406;28;20023;-74
2022/05/10 13:13:31;;;;;;;9.15;4.43;;;;;;;;;;5093716;28;20130;-75
2022/05/10 13:15:57;;;;;;;7.28;4.45;;;;;;;;;;5087533;28;20036;-72
2022/05/10 13:18:25;;;;;;;9.65;6.15;;;;;;;;;;5095536;28;20051;-72
2022/05/10 13:20:54;;;;;;;8.95;4.65;;;;;;;;;;5093438;28;20055;-74
2022/05/10 13:23:20;;;;;;;8.30;4.03;;;;;;;;;;5095648;28;20024;-73
2022/05/10 13:25:47;;;;;;;7.30;3.85;;;;;;;;;;5081849;28;20028;-73
2022/05/10 13:28:16;;;;;;;5.90;4.30;;;;;;;;;;5091631;28;20110;-73
2022/05/10 13:30:44;;;;;;;5.03;3.92;;;;;;;;;;5098355;28;20555;-73
2022/05/10 13:33:13;;;;;;;6.25;4.45;;;;;;;;;;5090490;28;20042;-74
2022/05/10 13:35:41;;;;;;;13.95;4.35;;;;;;;;;;5080048;28;20028;-73
2022/05/10 13:38:12;;;;;;;6.47;4.05;;;;;;;;;;5080857;28;21557;-75
2022/05/10 13:40:44;;;;;;;5.88;4.05;;;;;;;;;;5084442;28;20036;-72
2022/05/10 13:43:19;;;;;;;7.53;4.18;;;;;;;;;;5100119;28;20027;-75
2022/05/10 13:45:52;;;;;;;8.40;4.10;;;;;;;;;;5086857;28;20036;-72
2022/05/10 13:48:22;;;;;;;7.13;4.15;;;;;;;;;;5079482;28;20036;-72
2022/05/10 13:50:51;;;;;;;4.68;3.65;;;;;;;;;;5079387;28;20040;-73
2022/05/10 13:53:27;;;;;;;6.72;4.13;;;;;;;;;;5078236;28;20024;-75
2022/05/10 13:55:54;;;;;;;7.50;3.67;;;;;;;;;;5081981;28;20085;-73
2022/05/10 13:58:31;;;;;;;6.43;4.30;;;;;;;;;;5096455;28;20028;-73
2022/05/10 14:00:57;;;;;;;8.07;4.05;;;;;;;;;;5112685;28;20023;-75
2022/05/10 14:03:24;;;;;;;6.25;3.42;;;;;;;;;;5122258;27;20048;-72
2022/05/10 14:05:50;;;;;;;7.82;3.97;;;;;;;;;;5103169;27;20501;-72
2022/05/10 14:08:24;;;;;;;4.82;3.65;;;;;;;;;;5101897;28;20052;-73
2022/05/10 14:11:17;;;;;;;8.20;4.80;;;;;;;;;;5102083;28;20111;-73
2022/05/10 14:13:47;;;;;;;7.88;3.75;;;;;;;;;;5098535;28;20039;-72
2022/05/10 14:16:14;;;;;;;7.22;3.95;;;;;;;;;;5103304;28;20513;-73
2022/05/10 14:18:44;;;;;;;10.18;4.20;;;;;;;;;;5109646;28;20050;-76
2022/05/10 14:21:16;;;;;;;11.05;3.88;;;;;;;;;;5102310;28;20039;-75
2022/05/10 14:23:42;;;;;;;9.38;4.10;;;;;;;;;;5087475;28;20043;-73
2022/05/10 14:26:29;;;;;;;5.90;3.58;;;;;;;;;;5081541;28;20214;-73
2022/05/10 14:28:56;;;;;;;8.80;4.80;;;;;;;;;;5081274;28;20036;-72
2022/05/10 14:31:35;;;;;;;29.70;6.25;;;;;;;;;;5086700;28;20051;-73
2022/05/10 14:34:02;;;;;;;14.02;4.93;;;;;;;;;;5100659;28;20451;-71
2022/05/10 14:36:35;;;;;;;9.02;4.00;;;;;;;;;;5095004;28;20154;-71
2022/05/10 14:39:04;;;;;;;11.55;4.40;;;;;;;;;;5081567;28;20786;-73
2022/05/10 14:41:31;;;;;;;11.98;3.67;;;;;;;;;;5080432;28;20035;-73
2022/05/10 14:43:57;;;;;;;7.60;3.90;;;;;;;;;;5093991;28;20097;-72
2022/05/10 14:46:27;;;;;;;5.70;4.03;;;;;;;;;;5099545;28;20528;-74
2022/05/10 14:48:57;;;;;;;7.18;3.60;;;;;;;;;;5084704;28;20102;-73
2022/05/10 14:51:34;;;;;;;8.40;3.88;;;;;;;;;;5079875;28;20120;-75
2022/05/10 14:54:00;;;;;;;7.13;3.97;;;;;;;;;;5078987;28;20065;-74
2022/05/10 14:56:47;;;;;;;5.00;3.65;;;;;;;;;;5077450;28;20031;-73
2022/05/10 14:59:48;;;;;;;7.63;3.53;;;;;;;;;;5088856;28;20406;-73
2022/05/10 15:02:23;;;;;;;5.80;3.95;;;;;;;;;;5097668;28;20590;-72
2022/05/10 15:04:49;;;;;;;4.65;3.38;;;;;;;;;;5099188;28;20475;-75
2022/05/10 15:07:15;;;;;;;5.03;3.10;;;;;;;;;;5096126;28;20432;-74
2022/05/10 15:09:42;;;;;;;6.78;3.30;;;;;;;;;;5099164;28;20055;-73
2022/05/10 15:14:53;;;;;;;5.13;3.38;;;;;;;;;;5098928;28;20072;-74
2022/05/10 15:17:20;;;;;;;6.47;3.45;;;;;;;;;;5101673;28;20020;-75
2022/05/10 15:19:47;;;;;;;7.03;3.53;;;;;;;;;;5101291;28;20077;-74
2022/05/10 15:22:14;;;;;;;5.05;3.45;;;;;;;;;;5102901;28;20015;-73